sensor_id;sensor_type;location;lat;lon;timestamp;P1;durP1;ratioP1;P2;durP2;ratioP2
76157;SDS011;64907;51.574;6.502;2023-08-24T00:01:39;8.07;;;7.30;;
76157;SDS011;64907;51.574;6.502;2023-08-24T00:04:05;11.52;;;8.35;;
76157;SDS011;64907;51.574;6.502;2023-08-24T00:06:30;8.50;;;7.50;;
76157;SDS011;64907;51.574;6.502;2023-08-24T00:08:55;11.73;;;7.70;;
76157;SDS011;64907;51.574;6.502;2023-08-24T00:11:21;8.20;;;7.50;;
76157;SDS011;64907;51.574;6.502;2023-08-24T00:13:47;14.55;;;8.35;;
76157;SDS011;64907;51.574;6.502;2023-08-24T00:16:16;9.65;;;8.45;;
76157;SDS011;64907;51.574;6.502;2023-08-24T00:18:41;10.57;;;9.50;;
76157;SDS011;64907;51.574;6.502;2023-08-24T00:21:09;9.55;;;8.45;;
76157;SDS011;64907;51.574;6.502;2023-08-24T00:23:34;10.23;;;8.88;;
76157;SDS011;64907;51.574;6.502;2023-08-24T00:25:59;10.70;;;9.50;;
76157;SDS011;64907;51.574;6.502;2023-08-24T00:28:28;12.60;;;9.90;;
76157;SDS011;64907;51.574;6.502;2023-08-24T00:30:53;12.60;;;9.25;;
76157;SDS011;64907;51.574;6.502;2023-08-24T00:33:18;10.33;;;9.20;;
76157;SDS011;64907;51.574;6.502;2023-08-24T00:35:44;9.50;;;8.60;;
76157;SDS011;64907;51.574;6.502;2023-08-24T00:38:10;12.55;;;9.75;;
76157;SDS011;64907;51.574;6.502;2023-08-24T00:40:35;10.60;;;9.30;;
76157;SDS011;64907;51.574;6.502;2023-08-24T00:43:00;10.73;;;9.63;;
76157;SDS011;64907;51.574;6.502;2023-08-24T00:45:25;12.98;;;10.13;;
76157;SDS011;64907;51.574;6.502;2023-08-24T00:47:51;12.65;;;11.40;;
76157;SDS011;64907;51.574;6.502;2023-08-24T00:50:17;13.70;;;10.95;;
76157;SDS011;64907;51.574;6.502;2023-08-24T00:52:42;14.38;;;11.05;;
76157;SDS011;64907;51.574;6.502;2023-08-24T00:55:08;16.65;;;11.50;;
76157;SDS011;64907;51.574;6.502;2023-08-24T01:00:10;12.27;;;10.98;;
76157;SDS011;64907;51.574;6.502;2023-08-24T01:02:35;15.43;;;12.15;;
76157;SDS011;64907;51.574;6.502;2023-08-24T01:05:01;14.65;;;12.57;;
76157;SDS011;64907;51.574;6.502;2023-08-24T01:07:26;16.53;;;13.40;;
76157;SDS011;64907;51.574;6.502;2023-08-24T01:09:51;14.80;;;13.07;;
76157;SDS011;64907;51.574;6.502;2023-08-24T01:15:13;15.35;;;13.05;;
76157;SDS011;64907;51.574;6.502;2023-08-24T01:17:39;17.88;;;14.35;;
76157;SDS011;64907;51.574;6.502;2023-08-24T01:20:06;20.77;;;13.43;;
76157;SDS011;64907;51.574;6.502;2023-08-24T01:22:33;17.73;;;13.25;;
76157;SDS011;64907;51.574;6.502;2023-08-24T01:27:33;18.02;;;13.18;;
76157;SDS011;64907;51.574;6.502;2023-08-24T01:32:57;16.92;;;13.88;;
76157;SDS011;64907;51.574;6.502;2023-08-24T01:35:22;17.80;;;12.60;;
76157;SDS011;64907;51.574;6.502;2023-08-24T01:37:47;15.30;;;13.73;;
76157;SDS011;64907;51.574;6.502;2023-08-24T01:40:17;15.83;;;14.13;;
76157;SDS011;64907;51.574;6.502;2023-08-24T01:45:13;20.45;;;13.52;;
76157;SDS011;64907;51.574;6.502;2023-08-24T01:47:39;18.77;;;14.27;;
76157;SDS011;64907;51.574;6.502;2023-08-24T01:50:04;17.10;;;14.57;;
76157;SDS011;64907;51.574;6.502;2023-08-24T01:52:30;17.63;;;14.35;;
76157;SDS011;64907;51.574;6.502;2023-08-24T01:54:56;18.60;;;15.27;;
76157;SDS011;64907;51.574;6.502;2023-08-24T01:57:21;18.80;;;15.77;;
76157;SDS011;64907;51.574;6.502;2023-08-24T01:59:59;19.23;;;17.00;;
76157;SDS011;64907;51.574;6.502;2023-08-24T02:02:24;18.40;;;15.90;;
76157;SDS011;64907;51.574;6.502;2023-08-24T02:04:49;23.58;;;17.30;;
76157;SDS011;64907;51.574;6.502;2023-08-24T02:07:14;17.83;;;15.10;;
76157;SDS011;64907;51.574;6.502;2023-08-24T02:09:40;20.67;;;16.75;;
76157;SDS011;64907;51.574;6.502;2023-08-24T02:14:35;18.95;;;16.52;;
76157;SDS011;64907;51.574;6.502;2023-08-24T02:17:15;19.05;;;16.73;;
76157;SDS011;64907;51.574;6.502;2023-08-24T02:19:41;22.88;;;17.50;;
76157;SDS011;64907;51.574;6.502;2023-08-24T02:22:06;20.73;;;16.98;;
76157;SDS011;64907;51.574;6.502;2023-08-24T02:24:31;25.70;;;16.77;;
76157;SDS011;64907;51.574;6.502;2023-08-24T02:26:57;21.37;;;17.57;;
76157;SDS011;64907;51.574;6.502;2023-08-24T02:29:22;26.67;;;17.50;;
76157;SDS011;64907;51.574;6.502;2023-08-24T02:31:49;19.30;;;17.30;;
76157;SDS011;64907;51.574;6.502;2023-08-24T02:34:14;21.10;;;17.48;;
76157;SDS011;64907;51.574;6.502;2023-08-24T02:36:39;21.92;;;16.35;;
76157;SDS011;64907;51.574;6.502;2023-08-24T02:39:04;19.57;;;17.47;;
76157;SDS011;64907;51.574;6.502;2023-08-24T02:41:30;23.58;;;17.02;;
76157;SDS011;64907;51.574;6.502;2023-08-24T02:44:07;18.37;;;15.70;;
76157;SDS011;64907;51.574;6.502;2023-08-24T02:46:33;18.05;;;16.15;;
76157;SDS011;64907;51.574;6.502;2023-08-24T02:48:58;23.63;;;15.68;;
76157;SDS011;64907;51.574;6.502;2023-08-24T02:51:30;20.02;;;17.23;;
76157;SDS011;64907;51.574;6.502;2023-08-24T02:53:56;24.23;;;16.48;;
76157;SDS011;64907;51.574;6.502;2023-08-24T02:56:21;18.37;;;16.43;;
76157;SDS011;64907;51.574;6.502;2023-08-24T02:58:46;19.57;;;15.87;;
76157;SDS011;64907;51.574;6.502;2023-08-24T03:01:11;23.45;;;17.52;;
76157;SDS011;64907;51.574;6.502;2023-08-24T03:03:37;19.92;;;16.33;;
76157;SDS011;64907;51.574;6.502;2023-08-24T03:06:03;22.63;;;18.23;;
76157;SDS011;64907;51.574;6.502;2023-08-24T03:08:30;19.83;;;17.83;;
76157;SDS011;64907;51.574;6.502;2023-08-24T03:10:56;22.75;;;18.17;;
76157;SDS011;64907;51.574;6.502;2023-08-24T03:13:21;20.05;;;17.85;;
76157;SDS011;64907;51.574;6.502;2023-08-24T03:15:47;22.65;;;18.38;;
76157;SDS011;64907;51.574;6.502;2023-08-24T03:18:12;22.40;;;17.73;;
76157;SDS011;64907;51.574;6.502;2023-08-24T03:20:38;16.95;;;15.05;;
76157;SDS011;64907;51.574;6.502;2023-08-24T03:23:03;19.75;;;16.20;;
76157;SDS011;64907;51.574;6.502;2023-08-24T03:25:28;19.80;;;16.60;;
76157;SDS011;64907;51.574;6.502;2023-08-24T03:27:53;22.60;;;17.07;;
76157;SDS011;64907;51.574;6.502;2023-08-24T03:30:18;23.97;;;17.30;;
76157;SDS011;64907;51.574;6.502;2023-08-24T03:32:44;19.15;;;17.13;;
76157;SDS011;64907;51.574;6.502;2023-08-24T03:35:09;17.00;;;15.23;;
76157;SDS011;64907;51.574;6.502;2023-08-24T03:37:34;21.63;;;16.08;;
76157;SDS011;64907;51.574;6.502;2023-08-24T03:39:59;19.53;;;15.77;;
76157;SDS011;64907;51.574;6.502;2023-08-24T03:42:27;17.23;;;15.43;;
76157;SDS011;64907;51.574;6.502;2023-08-24T03:44:52;20.17;;;16.00;;
76157;SDS011;64907;51.574;6.502;2023-08-24T03:47:18;20.93;;;16.03;;
76157;SDS011;64907;51.574;6.502;2023-08-24T03:49:43;18.50;;;16.60;;
76157;SDS011;64907;51.574;6.502;2023-08-24T03:52:08;20.05;;;16.50;;
76157;SDS011;64907;51.574;6.502;2023-08-24T03:54:34;21.83;;;17.35;;
76157;SDS011;64907;51.574;6.502;2023-08-24T03:56:59;19.67;;;16.50;;
76157;SDS011;64907;51.574;6.502;2023-08-24T03:59:24;19.67;;;16.40;;
76157;SDS011;64907;51.574;6.502;2023-08-24T04:01:49;21.97;;;16.13;;
76157;SDS011;64907;51.574;6.502;2023-08-24T04:04:14;19.43;;;16.80;;
76157;SDS011;64907;51.574;6.502;2023-08-24T04:06:39;23.60;;;17.23;;
76157;SDS011;64907;51.574;6.502;2023-08-24T04:09:05;20.47;;;17.43;;
76157;SDS011;64907;51.574;6.502;2023-08-24T04:11:46;20.15;;;17.67;;
76157;SDS011;64907;51.574;6.502;2023-08-24T04:14:12;23.50;;;18.35;;
76157;SDS011;64907;51.574;6.502;2023-08-24T04:16:37;21.85;;;19.45;;
76157;SDS011;64907;51.574;6.502;2023-08-24T04:19:02;20.55;;;18.23;;
76157;SDS011;64907;51.574;6.502;2023-08-24T04:21:27;22.60;;;18.17;;
76157;SDS011;64907;51.574;6.502;2023-08-24T04:23:52;23.57;;;20.40;;
76157;SDS011;64907;51.574;6.502;2023-08-24T04:26:18;21.17;;;18.33;;
76157;SDS011;64907;51.574;6.502;2023-08-24T04:28:43;24.40;;;20.48;;
76157;SDS011;64907;51.574;6.502;2023-08-24T04:31:08;23.60;;;19.97;;
76157;SDS011;64907;51.574;6.502;2023-08-24T04:33:33;21.42;;;19.27;;
76157;SDS011;64907;51.574;6.502;2023-08-24T04:35:58;25.63;;;19.33;;
76157;SDS011;64907;51.574;6.502;2023-08-24T04:38:24;21.70;;;19.23;;
76157;SDS011;64907;51.574;6.502;2023-08-24T04:43:16;22.98;;;19.55;;
76157;SDS011;64907;51.574;6.502;2023-08-24T04:45:41;24.52;;;20.83;;
76157;SDS011;64907;51.574;6.502;2023-08-24T04:48:06;20.17;;;16.97;;
76157;SDS011;64907;51.574;6.502;2023-08-24T04:50:38;24.03;;;17.53;;
76157;SDS011;64907;51.574;6.502;2023-08-24T04:53:03;22.92;;;18.38;;
76157;SDS011;64907;51.574;6.502;2023-08-24T04:55:28;22.98;;;17.98;;
76157;SDS011;64907;51.574;6.502;2023-08-24T04:57:53;25.90;;;18.50;;
76157;SDS011;64907;51.574;6.502;2023-08-24T05:00:20;23.03;;;19.47;;
76157;SDS011;64907;51.574;6.502;2023-08-24T05:02:46;23.77;;;18.35;;
76157;SDS011;64907;51.574;6.502;2023-08-24T05:07:47;22.27;;;18.67;;
76157;SDS011;64907;51.574;6.502;2023-08-24T05:10:12;29.40;;;19.23;;
76157;SDS011;64907;51.574;6.502;2023-08-24T05:12:46;23.57;;;18.13;;
76157;SDS011;64907;51.574;6.502;2023-08-24T05:15:11;27.77;;;18.88;;
76157;SDS011;64907;51.574;6.502;2023-08-24T05:17:38;21.63;;;17.50;;
76157;SDS011;64907;51.574;6.502;2023-08-24T05:20:03;23.47;;;19.30;;
76157;SDS011;64907;51.574;6.502;2023-08-24T05:22:30;22.50;;;19.15;;
76157;SDS011;64907;51.574;6.502;2023-08-24T05:24:56;23.83;;;18.33;;
76157;SDS011;64907;51.574;6.502;2023-08-24T05:27:24;25.88;;;19.13;;
76157;SDS011;64907;51.574;6.502;2023-08-24T05:29:49;27.80;;;20.85;;
76157;SDS011;64907;51.574;6.502;2023-08-24T05:32:21;25.50;;;19.13;;
76157;SDS011;64907;51.574;6.502;2023-08-24T05:34:47;28.75;;;20.05;;
76157;SDS011;64907;51.574;6.502;2023-08-24T05:37:12;23.83;;;19.17;;
76157;SDS011;64907;51.574;6.502;2023-08-24T05:39:37;21.50;;;19.13;;
76157;SDS011;64907;51.574;6.502;2023-08-24T05:42:03;22.23;;;18.98;;
76157;SDS011;64907;51.574;6.502;2023-08-24T05:46:57;22.65;;;19.77;;
76157;SDS011;64907;51.574;6.502;2023-08-24T05:49:22;20.10;;;18.20;;
76157;SDS011;64907;51.574;6.502;2023-08-24T05:51:51;23.15;;;18.80;;
76157;SDS011;64907;51.574;6.502;2023-08-24T05:54:30;22.75;;;20.27;;
76157;SDS011;64907;51.574;6.502;2023-08-24T05:56:57;23.13;;;19.65;;
76157;SDS011;64907;51.574;6.502;2023-08-24T05:59:25;21.15;;;18.73;;
76157;SDS011;64907;51.574;6.502;2023-08-24T06:01:50;25.10;;;18.07;;
76157;SDS011;64907;51.574;6.502;2023-08-24T06:06:58;21.80;;;19.40;;
76157;SDS011;64907;51.574;6.502;2023-08-24T06:09:30;21.90;;;19.60;;
76157;SDS011;64907;51.574;6.502;2023-08-24T06:11:56;21.80;;;19.60;;
76157;SDS011;64907;51.574;6.502;2023-08-24T06:14:22;22.83;;;18.23;;
76157;SDS011;64907;51.574;6.502;2023-08-24T06:16:47;21.42;;;17.20;;
76157;SDS011;64907;51.574;6.502;2023-08-24T06:19:14;22.50;;;18.52;;
76157;SDS011;64907;51.574;6.502;2023-08-24T06:21:39;24.85;;;19.00;;
76157;SDS011;64907;51.574;6.502;2023-08-24T06:24:05;24.50;;;18.57;;
76157;SDS011;64907;51.574;6.502;2023-08-24T06:26:36;22.48;;;19.55;;
76157;SDS011;64907;51.574;6.502;2023-08-24T06:29:01;25.55;;;18.08;;
76157;SDS011;64907;51.574;6.502;2023-08-24T06:31:26;21.40;;;19.13;;
76157;SDS011;64907;51.574;6.502;2023-08-24T06:33:52;22.98;;;18.30;;
76157;SDS011;64907;51.574;6.502;2023-08-24T06:36:19;23.15;;;19.35;;
76157;SDS011;64907;51.574;6.502;2023-08-24T06:38:44;22.08;;;19.80;;
76157;SDS011;64907;51.574;6.502;2023-08-24T06:41:09;20.87;;;18.00;;
76157;SDS011;64907;51.574;6.502;2023-08-24T06:43:37;20.25;;;18.33;;
76157;SDS011;64907;51.574;6.502;2023-08-24T06:46:04;22.92;;;18.27;;
76157;SDS011;64907;51.574;6.502;2023-08-24T06:48:29;22.63;;;17.80;;
76157;SDS011;64907;51.574;6.502;2023-08-24T06:50:54;19.13;;;17.17;;
76157;SDS011;64907;51.574;6.502;2023-08-24T06:53:19;18.67;;;16.70;;
76157;SDS011;64907;51.574;6.502;2023-08-24T06:55:44;17.93;;;15.90;;
76157;SDS011;64907;51.574;6.502;2023-08-24T07:00:39;17.90;;;15.77;;
76157;SDS011;64907;51.574;6.502;2023-08-24T07:03:04;18.27;;;16.48;;
76157;SDS011;64907;51.574;6.502;2023-08-24T07:05:29;17.30;;;15.57;;
76157;SDS011;64907;51.574;6.502;2023-08-24T07:08:02;16.55;;;14.30;;
76157;SDS011;64907;51.574;6.502;2023-08-24T07:10:28;18.27;;;14.15;;
76157;SDS011;64907;51.574;6.502;2023-08-24T07:12:55;16.30;;;14.27;;
76157;SDS011;64907;51.574;6.502;2023-08-24T07:15:20;15.25;;;13.65;;
76157;SDS011;64907;51.574;6.502;2023-08-24T07:17:46;16.58;;;12.95;;
76157;SDS011;64907;51.574;6.502;2023-08-24T07:20:11;14.57;;;12.30;;
76157;SDS011;64907;51.574;6.502;2023-08-24T07:22:46;16.75;;;11.10;;
76157;SDS011;64907;51.574;6.502;2023-08-24T07:25:11;14.43;;;10.88;;
76157;SDS011;64907;51.574;6.502;2023-08-24T07:27:37;12.82;;;11.38;;
76157;SDS011;64907;51.574;6.502;2023-08-24T07:30:02;13.13;;;11.70;;
76157;SDS011;64907;51.574;6.502;2023-08-24T07:32:34;14.93;;;10.85;;
76157;SDS011;64907;51.574;6.502;2023-08-24T07:34:59;12.03;;;10.87;;
76157;SDS011;64907;51.574;6.502;2023-08-24T07:37:25;13.60;;;10.97;;
76157;SDS011;64907;51.574;6.502;2023-08-24T07:39:50;11.00;;;9.90;;
76157;SDS011;64907;51.574;6.502;2023-08-24T07:42:15;13.25;;;11.00;;
76157;SDS011;64907;51.574;6.502;2023-08-24T07:44:41;12.32;;;11.10;;
76157;SDS011;64907;51.574;6.502;2023-08-24T07:47:07;12.32;;;10.73;;
76157;SDS011;64907;51.574;6.502;2023-08-24T07:49:32;12.10;;;9.45;;
76157;SDS011;64907;51.574;6.502;2023-08-24T07:51:57;10.83;;;9.73;;
76157;SDS011;64907;51.574;6.502;2023-08-24T07:54:23;10.82;;;9.18;;
76157;SDS011;64907;51.574;6.502;2023-08-24T07:56:49;9.73;;;8.25;;
76157;SDS011;64907;51.574;6.502;2023-08-24T07:59:15;10.68;;;8.77;;
76157;SDS011;64907;51.574;6.502;2023-08-24T08:01:54;12.13;;;8.30;;
76157;SDS011;64907;51.574;6.502;2023-08-24T08:04:19;9.65;;;7.45;;
76157;SDS011;64907;51.574;6.502;2023-08-24T08:06:45;9.77;;;6.43;;
76157;SDS011;64907;51.574;6.502;2023-08-24T08:09:10;9.47;;;7.17;;
76157;SDS011;64907;51.574;6.502;2023-08-24T08:11:36;12.57;;;6.83;;
76157;SDS011;64907;51.574;6.502;2023-08-24T08:16:42;8.05;;;5.75;;
76157;SDS011;64907;51.574;6.502;2023-08-24T08:19:09;7.43;;;5.60;;
76157;SDS011;64907;51.574;6.502;2023-08-24T08:21:34;9.38;;;5.45;;
76157;SDS011;64907;51.574;6.502;2023-08-24T08:23:59;8.13;;;5.80;;
76157;SDS011;64907;51.574;6.502;2023-08-24T08:29:06;10.75;;;5.43;;
76157;SDS011;64907;51.574;6.502;2023-08-24T08:31:31;5.82;;;5.18;;
76157;SDS011;64907;51.574;6.502;2023-08-24T08:33:57;5.23;;;4.83;;
76157;SDS011;64907;51.574;6.502;2023-08-24T08:36:22;6.73;;;5.40;;
76157;SDS011;64907;51.574;6.502;2023-08-24T08:38:47;9.77;;;5.00;;
76157;SDS011;64907;51.574;6.502;2023-08-24T08:41:13;5.57;;;4.40;;
76157;SDS011;64907;51.574;6.502;2023-08-24T08:43:39;4.82;;;4.43;;
76157;SDS011;64907;51.574;6.502;2023-08-24T08:46:04;6.30;;;4.83;;
76157;SDS011;64907;51.574;6.502;2023-08-24T08:48:33;8.15;;;4.40;;
76157;SDS011;64907;51.574;6.502;2023-08-24T08:50:58;5.72;;;4.60;;
76157;SDS011;64907;51.574;6.502;2023-08-24T08:53:32;6.40;;;4.57;;
76157;SDS011;64907;51.574;6.502;2023-08-24T08:55:57;5.63;;;4.22;;
76157;SDS011;64907;51.574;6.502;2023-08-24T08:58:28;6.07;;;4.32;;
76157;SDS011;64907;51.574;6.502;2023-08-24T09:03:25;5.35;;;4.78;;
76157;SDS011;64907;51.574;6.502;2023-08-24T09:05:51;6.18;;;4.28;;
76157;SDS011;64907;51.574;6.502;2023-08-24T09:10:45;4.60;;;4.20;;
76157;SDS011;64907;51.574;6.502;2023-08-24T09:13:10;7.43;;;4.20;;
76157;SDS011;64907;51.574;6.502;2023-08-24T09:15:35;5.53;;;4.03;;
76157;SDS011;64907;51.574;6.502;2023-08-24T09:18:07;6.80;;;4.05;;
76157;SDS011;64907;51.574;6.502;2023-08-24T09:20:46;4.55;;;4.18;;
76157;SDS011;64907;51.574;6.502;2023-08-24T09:23:21;4.57;;;4.18;;
76157;SDS011;64907;51.574;6.502;2023-08-24T09:25:46;5.00;;;4.55;;
76157;SDS011;64907;51.574;6.502;2023-08-24T09:28:12;5.10;;;4.68;;
76157;SDS011;64907;51.574;6.502;2023-08-24T09:30:37;5.20;;;4.78;;
76157;SDS011;64907;51.574;6.502;2023-08-24T09:33:03;7.93;;;5.37;;
76157;SDS011;64907;51.574;6.502;2023-08-24T09:35:28;5.05;;;4.43;;
76157;SDS011;64907;51.574;6.502;2023-08-24T09:37:54;5.75;;;4.70;;
76157;SDS011;64907;51.574;6.502;2023-08-24T09:40:23;4.60;;;4.10;;
76157;SDS011;64907;51.574;6.502;2023-08-24T09:45:19;5.45;;;4.80;;
76157;SDS011;64907;51.574;6.502;2023-08-24T09:47:50;7.30;;;4.90;;
76157;SDS011;64907;51.574;6.502;2023-08-24T09:50:16;7.68;;;5.38;;
76157;SDS011;64907;51.574;6.502;2023-08-24T09:52:44;6.88;;;4.95;;
76157;SDS011;64907;51.574;6.502;2023-08-24T09:55:11;7.97;;;5.55;;
76157;SDS011;64907;51.574;6.502;2023-08-24T09:57:38;7.00;;;4.72;;
76157;SDS011;64907;51.574;6.502;2023-08-24T10:00:07;9.07;;;5.05;;
76157;SDS011;64907;51.574;6.502;2023-08-24T10:02:44;11.10;;;7.38;;
76157;SDS011;64907;51.574;6.502;2023-08-24T10:05:11;7.72;;;5.40;;
76157;SDS011;64907;51.574;6.502;2023-08-24T10:07:37;7.18;;;4.85;;
76157;SDS011;64907;51.574;6.502;2023-08-24T10:12:35;6.15;;;4.65;;
76157;SDS011;64907;51.574;6.502;2023-08-24T10:15:01;4.53;;;4.10;;
76157;SDS011;64907;51.574;6.502;2023-08-24T10:17:37;8.38;;;5.22;;
76157;SDS011;64907;51.574;6.502;2023-08-24T10:20:02;4.90;;;4.10;;
76157;SDS011;64907;51.574;6.502;2023-08-24T10:22:38;7.20;;;4.90;;
76157;SDS011;64907;51.574;6.502;2023-08-24T10:25:07;6.35;;;4.10;;
76157;SDS011;64907;51.574;6.502;2023-08-24T10:27:34;6.85;;;4.55;;
76157;SDS011;64907;51.574;6.502;2023-08-24T10:29:59;5.47;;;4.72;;
76157;SDS011;64907;51.574;6.502;2023-08-24T10:32:24;7.20;;;4.30;;
76157;SDS011;64907;51.574;6.502;2023-08-24T10:34:50;5.60;;;4.63;;
76157;SDS011;64907;51.574;6.502;2023-08-24T10:37:15;6.32;;;3.90;;
76157;SDS011;64907;51.574;6.502;2023-08-24T10:39:44;5.07;;;3.97;;
76157;SDS011;64907;51.574;6.502;2023-08-24T10:42:10;5.00;;;3.95;;
76157;SDS011;64907;51.574;6.502;2023-08-24T10:47:15;7.32;;;4.07;;
76157;SDS011;64907;51.574;6.502;2023-08-24T10:49:41;4.45;;;3.80;;
76157;SDS011;64907;51.574;6.502;2023-08-24T10:52:21;4.97;;;3.70;;
76157;SDS011;64907;51.574;6.502;2023-08-24T10:54:50;6.47;;;4.18;;
76157;SDS011;64907;51.574;6.502;2023-08-24T10:57:22;4.13;;;3.78;;
76157;SDS011;64907;51.574;6.502;2023-08-24T11:00:04;4.03;;;3.78;;
76157;SDS011;64907;51.574;6.502;2023-08-24T11:02:43;4.07;;;3.47;;
76157;SDS011;64907;51.574;6.502;2023-08-24T11:05:14;5.47;;;4.65;;
76157;SDS011;64907;51.574;6.502;2023-08-24T11:10:19;5.95;;;5.35;;
76157;SDS011;64907;51.574;6.502;2023-08-24T11:15:32;8.05;;;5.75;;
76157;SDS011;64907;51.574;6.502;2023-08-24T11:23:09;5.43;;;4.90;;
76157;SDS011;64907;51.574;6.502;2023-08-24T11:25:35;5.37;;;4.73;;
76157;SDS011;64907;51.574;6.502;2023-08-24T11:28:01;11.45;;;4.88;;
76157;SDS011;64907;51.574;6.502;2023-08-24T11:30:34;5.03;;;4.60;;
76157;SDS011;64907;51.574;6.502;2023-08-24T11:33:00;6.68;;;5.43;;
76157;SDS011;64907;51.574;6.502;2023-08-24T11:35:25;9.98;;;4.97;;
76157;SDS011;64907;51.574;6.502;2023-08-24T11:37:54;5.05;;;4.63;;
76157;SDS011;64907;51.574;6.502;2023-08-24T11:40:19;5.30;;;4.85;;
76157;SDS011;64907;51.574;6.502;2023-08-24T11:42:45;5.90;;;5.13;;
76157;SDS011;64907;51.574;6.502;2023-08-24T11:45:11;9.40;;;4.70;;
76157;SDS011;64907;51.574;6.502;2023-08-24T11:47:37;5.20;;;4.70;;
76157;SDS011;64907;51.574;6.502;2023-08-24T11:50:03;6.10;;;4.63;;
76157;SDS011;64907;51.574;6.502;2023-08-24T11:52:28;4.43;;;4.18;;
76157;SDS011;64907;51.574;6.502;2023-08-24T11:54:54;4.47;;;4.07;;
76157;SDS011;64907;51.574;6.502;2023-08-24T11:57:19;4.95;;;4.25;;
76157;SDS011;64907;51.574;6.502;2023-08-24T12:02:14;4.63;;;4.18;;
76157;SDS011;64907;51.574;6.502;2023-08-24T12:04:42;5.30;;;4.63;;
76157;SDS011;64907;51.574;6.502;2023-08-24T12:07:10;4.68;;;4.28;;
76157;SDS011;64907;51.574;6.502;2023-08-24T12:09:37;4.47;;;4.13;;
76157;SDS011;64907;51.574;6.502;2023-08-24T12:12:02;5.35;;;4.30;;
76157;SDS011;64907;51.574;6.502;2023-08-24T12:14:29;4.28;;;3.85;;
76157;SDS011;64907;51.574;6.502;2023-08-24T12:17:08;6.10;;;3.92;;
76157;SDS011;64907;51.574;6.502;2023-08-24T12:19:33;6.70;;;4.30;;
76157;SDS011;64907;51.574;6.502;2023-08-24T12:21:59;5.18;;;4.43;;
76157;SDS011;64907;51.574;6.502;2023-08-24T12:24:24;4.10;;;3.90;;
76157;SDS011;64907;51.574;6.502;2023-08-24T12:26:56;4.80;;;4.45;;
76157;SDS011;64907;51.574;6.502;2023-08-24T12:29:22;7.55;;;4.85;;
76157;SDS011;64907;51.574;6.502;2023-08-24T12:31:47;9.25;;;4.68;;
76157;SDS011;64907;51.574;6.502;2023-08-24T12:34:14;6.33;;;4.47;;
76157;SDS011;64907;51.574;6.502;2023-08-24T12:36:39;12.63;;;4.47;;
76157;SDS011;64907;51.574;6.502;2023-08-24T12:39:06;8.57;;;4.63;;
76157;SDS011;64907;51.574;6.502;2023-08-24T12:41:35;4.38;;;4.00;;
76157;SDS011;64907;51.574;6.502;2023-08-24T12:44:00;5.55;;;4.55;;
76157;SDS011;64907;51.574;6.502;2023-08-24T12:46:29;5.50;;;4.60;;
76157;SDS011;64907;51.574;6.502;2023-08-24T12:48:55;7.10;;;5.13;;
76157;SDS011;64907;51.574;6.502;2023-08-24T12:51:20;17.30;;;5.03;;
76157;SDS011;64907;51.574;6.502;2023-08-24T12:56:14;6.13;;;4.68;;
76157;SDS011;64907;51.574;6.502;2023-08-24T12:58:55;5.17;;;4.63;;
76157;SDS011;64907;51.574;6.502;2023-08-24T13:01:20;5.50;;;4.47;;
76157;SDS011;64907;51.574;6.502;2023-08-24T13:03:45;5.00;;;4.43;;
76157;SDS011;64907;51.574;6.502;2023-08-24T13:06:12;7.27;;;4.33;;
76157;SDS011;64907;51.574;6.502;2023-08-24T13:08:37;5.97;;;5.35;;
76157;SDS011;64907;51.574;6.502;2023-08-24T13:11:03;8.18;;;4.60;;
76157;SDS011;64907;51.574;6.502;2023-08-24T13:15:58;7.63;;;4.65;;
76157;SDS011;64907;51.574;6.502;2023-08-24T13:20:53;4.90;;;4.50;;
76157;SDS011;64907;51.574;6.502;2023-08-24T13:23:18;5.30;;;4.55;;
76157;SDS011;64907;51.574;6.502;2023-08-24T13:25:43;8.15;;;4.28;;
76157;SDS011;64907;51.574;6.502;2023-08-24T13:28:08;7.93;;;4.77;;
76157;SDS011;64907;51.574;6.502;2023-08-24T13:30:34;5.45;;;4.93;;
76157;SDS011;64907;51.574;6.502;2023-08-24T13:32:59;5.32;;;4.85;;
76157;SDS011;64907;51.574;6.502;2023-08-24T13:35:32;5.13;;;4.63;;
76157;SDS011;64907;51.574;6.502;2023-08-24T13:37:57;11.13;;;5.05;;
76157;SDS011;64907;51.574;6.502;2023-08-24T13:40:23;7.43;;;4.53;;
76157;SDS011;64907;51.574;6.502;2023-08-24T13:45:18;6.05;;;4.28;;
76157;SDS011;64907;51.574;6.502;2023-08-24T13:47:43;6.20;;;4.20;;
76157;SDS011;64907;51.574;6.502;2023-08-24T13:50:09;5.13;;;4.57;;
76157;SDS011;64907;51.574;6.502;2023-08-24T13:52:34;5.97;;;4.43;;
76157;SDS011;64907;51.574;6.502;2023-08-24T13:55:06;7.20;;;4.20;;
76157;SDS011;64907;51.574;6.502;2023-08-24T13:57:31;5.38;;;3.90;;
76157;SDS011;64907;51.574;6.502;2023-08-24T13:59:56;5.00;;;3.87;;
76157;SDS011;64907;51.574;6.502;2023-08-24T14:02:21;3.92;;;3.38;;
76157;SDS011;64907;51.574;6.502;2023-08-24T14:07:22;4.05;;;3.33;;
76157;SDS011;64907;51.574;6.502;2023-08-24T14:09:47;5.47;;;3.33;;
76157;SDS011;64907;51.574;6.502;2023-08-24T14:12:12;3.65;;;3.10;;
76157;SDS011;64907;51.574;6.502;2023-08-24T14:14:37;6.93;;;3.30;;
76157;SDS011;64907;51.574;6.502;2023-08-24T14:17:02;3.87;;;3.27;;
76157;SDS011;64907;51.574;6.502;2023-08-24T14:19:30;3.47;;;3.17;;
76157;SDS011;64907;51.574;6.502;2023-08-24T14:21:56;5.70;;;3.30;;
76157;SDS011;64907;51.574;6.502;2023-08-24T14:24:23;10.65;;;3.70;;
76157;SDS011;64907;51.574;6.502;2023-08-24T14:26:48;3.57;;;3.27;;
76157;SDS011;64907;51.574;6.502;2023-08-24T14:31:43;17.55;;;4.90;;
76157;SDS011;64907;51.574;6.502;2023-08-24T14:34:09;4.07;;;3.70;;
76157;SDS011;64907;51.574;6.502;2023-08-24T14:36:34;5.80;;;3.77;;
76157;SDS011;64907;51.574;6.502;2023-08-24T14:38:59;7.13;;;4.00;;
76157;SDS011;64907;51.574;6.502;2023-08-24T14:41:24;5.43;;;4.30;;
76157;SDS011;64907;51.574;6.502;2023-08-24T14:43:49;5.97;;;3.97;;
76157;SDS011;64907;51.574;6.502;2023-08-24T14:46:14;4.80;;;3.67;;
76157;SDS011;64907;51.574;6.502;2023-08-24T14:48:40;4.93;;;3.57;;
76157;SDS011;64907;51.574;6.502;2023-08-24T14:51:05;5.13;;;3.67;;
76157;SDS011;64907;51.574;6.502;2023-08-24T14:53:44;4.97;;;3.63;;
76157;SDS011;64907;51.574;6.502;2023-08-24T14:56:10;5.65;;;4.43;;
76157;SDS011;64907;51.574;6.502;2023-08-24T14:58:35;6.78;;;4.32;;
76157;SDS011;64907;51.574;6.502;2023-08-24T15:01:01;5.67;;;4.00;;
76157;SDS011;64907;51.574;6.502;2023-08-24T15:03:26;4.72;;;4.00;;
76157;SDS011;64907;51.574;6.502;2023-08-24T15:08:23;5.13;;;4.43;;
76157;SDS011;64907;51.574;6.502;2023-08-24T15:10:49;6.90;;;4.35;;
76157;SDS011;64907;51.574;6.502;2023-08-24T15:13:14;7.53;;;4.37;;
76157;SDS011;64907;51.574;6.502;2023-08-24T15:15:39;7.35;;;3.83;;
76157;SDS011;64907;51.574;6.502;2023-08-24T15:18:05;6.57;;;4.43;;
76157;SDS011;64907;51.574;6.502;2023-08-24T15:20:30;4.88;;;3.70;;
76157;SDS011;64907;51.574;6.502;2023-08-24T15:22:55;5.80;;;3.37;;
76157;SDS011;64907;51.574;6.502;2023-08-24T15:25:20;5.40;;;4.68;;
76157;SDS011;64907;51.574;6.502;2023-08-24T15:27:46;6.18;;;3.28;;
76157;SDS011;64907;51.574;6.502;2023-08-24T15:30:11;5.43;;;3.33;;
76157;SDS011;64907;51.574;6.502;2023-08-24T15:32:37;3.45;;;3.05;;
76157;SDS011;64907;51.574;6.502;2023-08-24T15:35:02;3.92;;;3.42;;
76157;SDS011;64907;51.574;6.502;2023-08-24T15:37:30;3.65;;;3.35;;
76157;SDS011;64907;51.574;6.502;2023-08-24T15:39:56;5.50;;;3.43;;
76157;SDS011;64907;51.574;6.502;2023-08-24T15:42:30;6.47;;;3.85;;
76157;SDS011;64907;51.574;6.502;2023-08-24T15:44:56;6.63;;;3.35;;
76157;SDS011;64907;51.574;6.502;2023-08-24T15:47:21;4.38;;;3.50;;
76157;SDS011;64907;51.574;6.502;2023-08-24T15:49:46;4.53;;;3.50;;